createdAt,value
2023-02-14T00:00:32.064Z,9
2023-02-14T00:02:32.110Z,10
2023-02-14T00:03:32.074Z,11
2023-02-14T00:04:32.156Z,11
2023-02-14T00:06:32.106Z,11
2023-02-14T00:07:32.092Z,11
2023-02-14T00:08:32.068Z,10
2023-02-14T00:09:32.099Z,10
2023-02-14T00:10:32.078Z,10
2023-02-14T00:11:32.159Z,11
2023-02-14T00:12:32.075Z,11
2023-02-14T00:13:32.074Z,11
2023-02-14T00:14:32.086Z,11
2023-02-14T00:15:32.071Z,11
2023-02-14T00:16:32.158Z,12
2023-02-14T00:17:32.075Z,11
2023-02-14T00:18:32.077Z,12
2023-02-14T00:19:32.074Z,11
2023-02-14T00:20:32.077Z,11
2023-02-14T00:21:32.078Z,12
2023-02-14T00:23:32.088Z,11
2023-02-14T00:24:32.082Z,12
2023-02-14T00:25:32.083Z,11
2023-02-14T00:26:32.092Z,12
2023-02-14T00:27:32.076Z,11
2023-02-14T00:28:32.181Z,11
2023-02-14T00:29:32.072Z,12
2023-02-14T00:30:32.238Z,11
2023-02-14T00:31:32.173Z,12
2023-02-14T00:32:32.083Z,11
2023-02-14T00:33:32.077Z,11
2023-02-14T00:34:32.084Z,11
2023-02-14T00:35:32.084Z,11
2023-02-14T00:36:32.077Z,10
2023-02-14T00:37:32.076Z,11
2023-02-14T00:38:32.076Z,10
2023-02-14T00:39:32.070Z,11
2023-02-14T00:40:32.095Z,11
2023-02-14T00:41:32.078Z,11
2023-02-14T00:42:32.079Z,10
2023-02-14T00:44:32.083Z,11
2023-02-14T00:45:32.174Z,11
2023-02-14T00:46:32.115Z,12
2023-02-14T00:47:32.084Z,11
2023-02-14T00:48:32.081Z,12
2023-02-14T00:49:32.073Z,11
2023-02-14T00:50:32.083Z,12
2023-02-14T00:51:32.067Z,12
2023-02-14T00:52:32.123Z,12
2023-02-14T00:53:32.095Z,12
2023-02-14T00:54:32.084Z,11
2023-02-14T00:55:32.074Z,12
2023-02-14T00:56:32.087Z,12
2023-02-14T00:57:32.071Z,12
2023-02-14T00:58:32.081Z,12
2023-02-14T00:59:32.109Z,12
2023-02-14T01:00:32.166Z,12
2023-02-14T01:01:32.074Z,13
2023-02-14T01:02:32.123Z,13
2023-02-14T01:03:32.089Z,12
2023-02-14T01:05:32.112Z,12
2023-02-14T01:06:32.096Z,11
2023-02-14T01:07:32.090Z,13
2023-02-14T01:08:32.092Z,11
2023-02-14T01:09:32.094Z,12
2023-02-14T01:11:32.095Z,13
2023-02-14T01:12:32.108Z,12
2023-02-14T01:13:32.077Z,12
2023-02-14T01:14:32.110Z,13
2023-02-14T01:16:32.209Z,12
2023-02-14T01:17:32.092Z,14
2023-02-14T01:18:32.097Z,12
2023-02-14T01:19:32.095Z,12
2023-02-14T01:20:32.067Z,14
2023-02-14T01:21:32.074Z,13
2023-02-14T01:22:32.075Z,13
2023-02-14T01:24:32.095Z,12
2023-02-14T01:25:32.094Z,14
2023-02-14T01:26:32.077Z,13
2023-02-14T01:27:32.108Z,13
2023-02-14T01:28:32.114Z,12
2023-02-14T01:29:32.091Z,13
2023-02-14T01:30:32.111Z,12
2023-02-14T01:31:32.300Z,12
2023-02-14T01:32:32.079Z,13
2023-02-14T01:33:32.112Z,13
2023-02-14T01:34:32.104Z,12
2023-02-14T01:35:32.088Z,13
2023-02-14T01:37:32.100Z,13
2023-02-14T01:38:32.094Z,13
2023-02-14T01:39:32.129Z,13
2023-02-14T01:40:32.152Z,13
2023-02-14T01:41:32.172Z,14
2023-02-14T01:42:32.146Z,14
2023-02-14T01:43:32.141Z,13
2023-02-14T01:44:32.141Z,13
2023-02-14T01:45:32.201Z,14
2023-02-14T01:46:32.156Z,13
2023-02-14T01:47:32.128Z,13
2023-02-14T01:48:32.128Z,15
2023-02-14T01:49:32.155Z,13
2023-02-14T01:50:32.145Z,14
2023-02-14T01:51:32.158Z,14
2023-02-14T01:52:32.156Z,13
2023-02-14T01:53:32.150Z,14
2023-02-14T01:54:32.148Z,14
2023-02-14T01:55:32.146Z,14
2023-02-14T01:56:32.136Z,15
2023-02-14T01:58:32.159Z,14
2023-02-14T01:59:32.147Z,15
2023-02-14T02:00:32.152Z,14
2023-02-14T02:01:32.232Z,14
2023-02-14T02:02:32.174Z,14
2023-02-14T02:03:32.142Z,15
2023-02-14T02:04:32.153Z,13
2023-02-14T02:05:32.147Z,14
2023-02-14T02:06:32.146Z,13
2023-02-14T02:07:32.134Z,14
2023-02-14T02:08:32.148Z,13
2023-02-14T02:09:32.146Z,13
2023-02-14T02:10:32.132Z,13
2023-02-14T02:11:32.135Z,14
2023-02-14T02:12:32.134Z,13
2023-02-14T02:13:32.130Z,14
2023-02-14T02:14:32.129Z,13
2023-02-14T02:15:32.159Z,14
2023-02-14T02:17:32.153Z,13
2023-02-14T02:18:32.148Z,13
2023-02-14T02:20:32.149Z,12
2023-02-14T02:21:32.159Z,11
2023-02-14T02:22:32.163Z,13
2023-02-14T02:23:32.186Z,12
2023-02-14T02:24:32.157Z,12
2023-02-14T02:25:32.165Z,12
2023-02-14T02:26:32.140Z,13
2023-02-14T02:27:32.150Z,12
2023-02-14T02:28:32.189Z,13
2023-02-14T02:30:32.399Z,12
2023-02-14T02:31:32.343Z,12
2023-02-14T02:32:32.175Z,13
2023-02-14T02:33:32.170Z,12
2023-02-14T02:34:32.189Z,13
2023-02-14T02:35:32.140Z,11
2023-02-14T02:36:32.160Z,12
2023-02-14T02:37:32.144Z,12
2023-02-14T02:38:32.146Z,11
2023-02-14T02:40:32.174Z,12
2023-02-14T02:42:32.226Z,12
2023-02-14T02:43:32.181Z,11
2023-02-14T02:44:32.167Z,12
2023-02-14T02:45:32.170Z,12
2023-02-14T02:46:32.186Z,11
2023-02-14T02:47:32.142Z,12
2023-02-14T02:48:32.155Z,12
2023-02-14T02:49:32.142Z,12
2023-02-14T02:50:32.137Z,12
2023-02-14T02:51:32.155Z,11
2023-02-14T02:52:32.144Z,12
2023-02-14T02:53:32.152Z,12
2023-02-14T02:55:32.138Z,12
2023-02-14T02:56:32.173Z,12
2023-02-14T02:57:32.152Z,11
2023-02-14T02:58:32.152Z,12
2023-02-14T02:59:32.177Z,12
2023-02-14T03:01:32.195Z,13
2023-02-14T03:02:32.143Z,13
2023-02-14T03:03:32.150Z,12
2023-02-14T03:04:32.181Z,13
2023-02-14T03:05:32.158Z,13
2023-02-14T03:06:32.146Z,12
2023-02-14T03:07:32.147Z,13
2023-02-14T03:08:32.142Z,13
2023-02-14T03:09:32.137Z,14
2023-02-14T03:10:32.145Z,12
2023-02-14T03:11:32.148Z,13
2023-02-14T03:12:32.149Z,13
2023-02-14T03:13:32.170Z,13
2023-02-14T03:14:32.140Z,13
2023-02-14T03:15:32.202Z,13
2023-02-14T03:16:32.156Z,13
2023-02-14T03:17:32.160Z,12
2023-02-14T03:18:32.158Z,13
2023-02-14T03:20:32.160Z,13
2023-02-14T03:21:32.158Z,12
2023-02-14T03:22:32.166Z,13
2023-02-14T03:23:32.159Z,13
2023-02-14T03:24:32.225Z,13
2023-02-14T03:25:32.146Z,13
2023-02-14T03:26:32.145Z,12
2023-02-14T03:27:32.147Z,12
2023-02-14T03:28:32.158Z,12
2023-02-14T03:29:32.147Z,13
2023-02-14T03:30:32.325Z,13
2023-02-14T03:31:32.306Z,12
2023-02-14T03:32:32.163Z,13
2023-02-14T03:33:32.180Z,12
2023-02-14T03:34:33.307Z,13
2023-02-14T03:35:32.159Z,12
2023-02-14T03:37:32.157Z,12
2023-02-14T03:38:32.160Z,13
2023-02-14T03:39:32.151Z,13
2023-02-14T03:41:32.158Z,12
2023-02-14T03:42:32.174Z,13
2023-02-14T03:43:32.170Z,12
2023-02-14T03:44:32.156Z,13
2023-02-14T03:45:32.266Z,13
2023-02-14T03:46:32.200Z,13
2023-02-14T03:47:32.163Z,12
2023-02-14T03:48:32.173Z,13
2023-02-14T03:49:32.154Z,13
2023-02-14T03:50:32.156Z,13
2023-02-14T03:51:32.149Z,13
2023-02-14T03:52:32.157Z,13
2023-02-14T03:54:32.217Z,12
2023-02-14T03:55:32.165Z,14
2023-02-14T03:56:32.166Z,13
2023-02-14T03:57:32.148Z,14
2023-02-14T03:58:32.193Z,13
2023-02-14T03:59:32.170Z,13
2023-02-14T04:00:32.164Z,12
2023-02-14T04:02:32.162Z,13
2023-02-14T04:03:32.224Z,13
2023-02-14T04:04:32.151Z,13
2023-02-14T04:05:32.156Z,12
2023-02-14T04:06:32.182Z,12
2023-02-14T04:07:32.153Z,13
2023-02-14T04:08:32.171Z,13
2023-02-14T04:09:32.172Z,12
2023-02-14T04:10:32.174Z,13
2023-02-14T04:11:32.158Z,13
2023-02-14T04:13:32.158Z,13
2023-02-14T04:14:32.154Z,12
2023-02-14T04:15:32.145Z,13
2023-02-14T04:16:32.196Z,12
2023-02-14T04:17:32.175Z,12
2023-02-14T04:18:32.155Z,12
2023-02-14T04:19:32.170Z,13
2023-02-14T04:20:32.169Z,12
2023-02-14T04:21:32.155Z,13
2023-02-14T04:22:32.180Z,12
2023-02-14T04:23:32.174Z,12
2023-02-14T04:24:32.168Z,12
2023-02-14T04:25:32.170Z,12
2023-02-14T04:26:32.167Z,13
2023-02-14T04:27:32.167Z,12
2023-02-14T04:28:32.172Z,13
2023-02-14T04:29:32.160Z,12
2023-02-14T04:30:32.244Z,13
2023-02-14T04:31:32.349Z,12
2023-02-14T04:32:32.208Z,12
2023-02-14T04:34:32.153Z,13
2023-02-14T04:36:32.172Z,12
2023-02-14T04:37:32.151Z,12
2023-02-14T04:38:32.157Z,12
2023-02-14T04:39:32.158Z,13
2023-02-14T04:40:32.159Z,13
2023-02-14T04:41:32.171Z,12
2023-02-14T04:42:32.164Z,13
2023-02-14T04:43:32.164Z,12
2023-02-14T04:44:32.152Z,13
2023-02-14T04:45:32.159Z,12
2023-02-14T04:46:32.263Z,12
2023-02-14T04:47:32.168Z,12
2023-02-14T04:48:32.169Z,12
2023-02-14T04:49:32.162Z,12
2023-02-14T04:50:32.175Z,12
2023-02-14T04:51:32.179Z,13
2023-02-14T04:52:32.199Z,12
2023-02-14T04:53:32.170Z,12
2023-02-14T04:55:32.184Z,13
2023-02-14T04:56:32.166Z,13
2023-02-14T04:57:32.157Z,12
2023-02-14T04:58:32.158Z,12
2023-02-14T04:59:32.154Z,12
2023-02-14T05:00:32.280Z,12
2023-02-14T05:01:32.165Z,12
2023-02-14T05:02:32.153Z,13
2023-02-14T05:03:32.182Z,14
2023-02-14T05:05:32.162Z,12
2023-02-14T05:07:32.154Z,14
2023-02-14T05:08:32.205Z,12
2023-02-14T05:09:32.168Z,12
2023-02-14T05:10:32.182Z,12
2023-02-14T05:11:32.173Z,13
2023-02-14T05:12:32.180Z,13
2023-02-14T05:14:32.173Z,13
2023-02-14T05:16:32.204Z,13
2023-02-14T05:17:32.195Z,12
2023-02-14T05:18:32.166Z,13
2023-02-14T05:20:32.176Z,13
2023-02-14T05:21:32.199Z,13
2023-02-14T05:22:32.175Z,13
2023-02-14T05:23:32.166Z,13
2023-02-14T05:24:32.176Z,13
2023-02-14T05:26:32.155Z,14
2023-02-14T05:27:32.170Z,13
2023-02-14T05:28:32.162Z,11
2023-02-14T05:29:32.161Z,13
2023-02-14T05:30:32.323Z,13
2023-02-14T05:31:32.318Z,14
2023-02-14T05:32:32.173Z,13
2023-02-14T05:33:32.172Z,12
2023-02-14T05:34:32.204Z,13
2023-02-14T05:35:32.165Z,13
2023-02-14T05:37:32.165Z,13
2023-02-14T05:38:32.169Z,12
2023-02-14T05:39:32.174Z,13
2023-02-14T05:40:32.176Z,13
2023-02-14T05:42:32.164Z,12
2023-02-14T05:43:32.172Z,13
2023-02-14T05:44:32.174Z,12
2023-02-14T05:45:32.248Z,13
2023-02-14T05:47:32.156Z,12
2023-02-14T05:48:32.156Z,12
2023-02-14T05:49:32.161Z,13
2023-02-14T05:50:32.188Z,13
2023-02-14T05:51:32.159Z,12
2023-02-14T05:52:32.174Z,12
2023-02-14T05:53:32.154Z,14
2023-02-14T05:54:32.224Z,13
2023-02-14T05:55:32.189Z,12
2023-02-14T05:56:32.185Z,12
2023-02-14T05:58:32.172Z,12
2023-02-14T05:59:32.175Z,13
2023-02-14T06:00:32.167Z,13
2023-02-14T06:01:32.169Z,12
2023-02-14T06:02:32.247Z,12
2023-02-14T06:03:32.174Z,12
2023-02-14T06:04:32.244Z,12
2023-02-14T06:05:32.208Z,13
2023-02-14T06:06:32.176Z,13
2023-02-14T06:08:32.174Z,12
2023-02-14T06:09:32.194Z,12
2023-02-14T06:10:32.171Z,12
2023-02-14T06:11:32.176Z,12
2023-02-14T06:12:32.188Z,13
2023-02-14T06:13:32.171Z,12
2023-02-14T06:14:32.163Z,12
2023-02-14T06:15:32.174Z,12
2023-02-14T06:17:32.184Z,11
2023-02-14T06:20:32.174Z,12
2023-02-14T06:21:32.218Z,13
2023-02-14T06:22:32.190Z,13
2023-02-14T06:23:32.179Z,12
2023-02-14T06:24:32.223Z,12
2023-02-14T06:25:32.176Z,13
2023-02-14T06:26:32.176Z,13
2023-02-14T06:27:32.176Z,12
2023-02-14T06:28:32.169Z,12
2023-02-14T06:29:32.194Z,13
2023-02-14T06:30:32.528Z,13
2023-02-14T06:31:32.302Z,10
2023-02-14T06:32:32.187Z,13
2023-02-14T06:33:32.174Z,13
2023-02-14T06:34:32.173Z,13
2023-02-14T06:35:32.191Z,13
2023-02-14T06:36:32.169Z,13
2023-02-14T06:38:32.195Z,12
2023-02-14T06:40:32.195Z,13
2023-02-14T06:41:32.191Z,13
2023-02-14T06:42:32.191Z,12
2023-02-14T06:43:32.191Z,13
2023-02-14T06:44:32.197Z,12
2023-02-14T06:45:32.177Z,13
2023-02-14T06:46:32.258Z,12
2023-02-14T06:47:34.661Z,12
2023-02-14T06:48:32.211Z,13
2023-02-14T06:49:32.175Z,13
2023-02-14T06:50:32.179Z,11
2023-02-14T06:51:32.204Z,13
2023-02-14T06:52:32.232Z,13
2023-02-14T06:53:32.180Z,13
2023-02-14T06:54:32.203Z,12
2023-02-14T06:55:32.171Z,13
2023-02-14T06:56:32.200Z,12
2023-02-14T06:57:32.179Z,13
2023-02-14T06:59:32.193Z,13
2023-02-14T07:00:32.172Z,13
2023-02-14T07:01:32.244Z,13
2023-02-14T07:02:32.236Z,13
2023-02-14T07:03:32.180Z,13
2023-02-14T07:04:32.181Z,13
2023-02-14T07:05:32.193Z,14
2023-02-14T07:06:32.294Z,13
2023-02-14T07:07:32.192Z,13
2023-02-14T07:08:32.180Z,14
2023-02-14T07:10:32.180Z,13
2023-02-14T07:11:32.186Z,14
2023-02-14T07:12:32.193Z,14
2023-02-14T07:13:32.194Z,14
2023-02-14T07:14:32.195Z,13
2023-02-14T07:15:32.251Z,13
2023-02-14T07:16:32.189Z,13
2023-02-14T07:17:32.181Z,13
2023-02-14T07:18:32.183Z,14
2023-02-14T07:19:32.192Z,14
2023-02-14T07:20:32.198Z,14
2023-02-14T07:21:32.204Z,13
2023-02-14T07:22:32.194Z,14
2023-02-14T07:23:32.224Z,13
2023-02-14T07:24:32.192Z,14
2023-02-14T07:25:32.192Z,15
2023-02-14T07:26:32.193Z,13
2023-02-14T07:27:32.182Z,13
2023-02-14T07:28:32.182Z,14
2023-02-14T07:29:32.192Z,13
2023-02-14T07:31:32.458Z,12
2023-02-14T07:32:32.183Z,13
2023-02-14T07:33:32.211Z,13
2023-02-14T07:34:32.195Z,13
2023-02-14T07:35:32.206Z,15
2023-02-14T07:36:32.206Z,12
2023-02-14T07:37:32.180Z,12
2023-02-14T07:38:32.211Z,12
2023-02-14T07:39:32.189Z,13
2023-02-14T07:40:32.191Z,13
2023-02-14T07:41:32.174Z,13
2023-02-14T07:42:32.177Z,14
2023-02-14T07:43:32.189Z,14
2023-02-14T07:44:32.186Z,13
2023-02-14T07:45:32.191Z,12
2023-02-14T07:47:32.188Z,12
2023-02-14T07:48:34.145Z,13
2023-02-14T07:49:32.187Z,11
2023-02-14T07:50:32.183Z,13
2023-02-14T07:51:32.198Z,12
2023-02-14T07:52:32.188Z,12
2023-02-14T07:54:32.204Z,11
2023-02-14T07:55:32.195Z,11
2023-02-14T07:56:32.205Z,11
2023-02-14T07:57:32.210Z,11
2023-02-14T07:58:32.207Z,11
2023-02-14T07:59:32.208Z,11
2023-02-14T08:00:32.210Z,11
2023-02-14T08:01:32.206Z,11
2023-02-14T08:02:32.196Z,12
2023-02-14T08:03:32.214Z,12
2023-02-14T08:04:33.804Z,12
2023-02-14T08:05:32.205Z,12
2023-02-14T08:06:32.190Z,12
2023-02-14T08:07:32.209Z,12
2023-02-14T08:08:32.205Z,11
2023-02-14T08:09:32.205Z,12
2023-02-14T08:10:32.188Z,12
2023-02-14T08:11:32.192Z,12
2023-02-14T08:13:32.218Z,12
2023-02-14T08:14:32.198Z,11
2023-02-14T08:15:32.216Z,11
2023-02-14T08:16:32.328Z,11
2023-02-14T08:17:32.205Z,12
2023-02-14T08:18:32.200Z,11
2023-02-14T08:19:32.201Z,11
2023-02-14T08:20:32.192Z,11
2023-02-14T08:21:32.202Z,12
2023-02-14T08:22:32.187Z,12
2023-02-14T08:23:32.190Z,11
2023-02-14T08:24:32.205Z,12
2023-02-14T08:25:32.244Z,12
2023-02-14T08:26:32.197Z,13
2023-02-14T08:27:32.226Z,12
2023-02-14T08:29:32.201Z,12
2023-02-14T08:30:32.373Z,13
2023-02-14T08:31:36.650Z,12
2023-02-14T08:32:32.360Z,12
2023-02-14T08:34:32.209Z,13
2023-02-14T08:35:32.239Z,13
2023-02-14T08:36:32.193Z,13
2023-02-14T08:37:32.208Z,14
2023-02-14T08:38:32.223Z,14
2023-02-14T08:39:32.209Z,14
2023-02-14T08:40:32.209Z,13
2023-02-14T08:41:32.216Z,13
2023-02-14T08:42:32.236Z,13
2023-02-14T08:43:34.192Z,14
2023-02-14T08:44:32.214Z,14
2023-02-14T08:45:32.229Z,14
2023-02-14T08:46:32.284Z,14
2023-02-14T08:47:32.218Z,14
2023-02-14T08:48:32.216Z,14
2023-02-14T08:49:32.234Z,14
2023-02-14T08:50:32.214Z,13
2023-02-14T08:51:32.211Z,14
2023-02-14T08:52:32.202Z,15
2023-02-14T08:53:32.201Z,14
2023-02-14T08:55:32.211Z,15
2023-02-14T08:56:32.263Z,15
2023-02-14T08:57:32.203Z,15
2023-02-14T08:58:32.877Z,14
2023-02-14T08:59:32.219Z,14
2023-02-14T09:00:32.284Z,14
2023-02-14T09:01:32.298Z,15
2023-02-14T09:02:32.203Z,14
2023-02-14T09:03:32.322Z,15
2023-02-14T09:04:32.395Z,14
2023-02-14T09:05:32.228Z,14
2023-02-14T09:06:32.235Z,14
2023-02-14T09:07:32.246Z,13
2023-02-14T09:08:32.254Z,14
2023-02-14T09:09:32.203Z,14
2023-02-14T09:10:32.244Z,13
2023-02-14T09:11:32.209Z,14
2023-02-14T09:12:32.207Z,13
2023-02-14T09:13:32.221Z,13
2023-02-14T09:14:32.297Z,13
2023-02-14T09:15:32.232Z,14
2023-02-14T09:16:32.491Z,13
2023-02-14T09:17:32.203Z,14
2023-02-14T09:18:32.210Z,13
2023-02-14T09:19:32.219Z,14
2023-02-14T09:20:32.246Z,13
2023-02-14T09:21:32.278Z,13
2023-02-14T09:22:32.261Z,13
2023-02-14T09:23:32.241Z,13
2023-02-14T09:24:32.233Z,13
2023-02-14T09:25:32.244Z,13
2023-02-14T09:27:32.514Z,14
2023-02-14T09:28:32.240Z,13
2023-02-14T09:29:32.232Z,13
2023-02-14T09:30:32.281Z,12
2023-02-14T09:31:32.421Z,13
2023-02-14T09:32:32.254Z,13
2023-02-14T09:33:32.237Z,13
2023-02-14T09:34:32.236Z,14
2023-02-14T09:35:32.236Z,13
2023-02-14T09:36:32.230Z,13
2023-02-14T09:37:32.227Z,13
2023-02-14T09:38:32.236Z,13
2023-02-14T09:39:32.225Z,13
2023-02-14T09:40:32.232Z,12
2023-02-14T09:41:32.229Z,12
2023-02-14T09:42:32.241Z,13
2023-02-14T09:43:32.246Z,13
2023-02-14T09:44:32.229Z,13
2023-02-14T09:46:32.239Z,12
2023-02-14T09:48:32.239Z,13
2023-02-14T09:49:32.443Z,13
2023-02-14T09:50:32.256Z,12
2023-02-14T09:51:32.250Z,12
2023-02-14T09:52:32.229Z,12
2023-02-14T09:53:32.242Z,13
2023-02-14T09:54:32.231Z,13
2023-02-14T09:55:32.222Z,13
2023-02-14T09:56:40.053Z,13
2023-02-14T09:57:32.236Z,13
2023-02-14T09:58:32.276Z,12
2023-02-14T09:59:32.228Z,13
2023-02-14T10:00:32.231Z,13
2023-02-14T10:01:32.280Z,12
2023-02-14T10:02:32.350Z,12
2023-02-14T10:03:32.228Z,12
2023-02-14T10:04:32.236Z,13
2023-02-14T10:05:32.253Z,13
2023-02-14T10:07:32.242Z,12
2023-02-14T10:08:32.234Z,13
2023-02-14T10:09:32.249Z,13
2023-02-14T10:11:32.249Z,12
2023-02-14T10:12:32.244Z,13
2023-02-14T10:13:32.244Z,13
2023-02-14T10:14:32.259Z,13
2023-02-14T10:15:32.255Z,12
2023-02-14T10:16:32.349Z,13
2023-02-14T10:17:32.243Z,14
2023-02-14T10:18:32.242Z,13
2023-02-14T10:19:32.236Z,13
2023-02-14T10:20:32.233Z,13
2023-02-14T10:21:32.268Z,13
2023-02-14T10:22:32.254Z,13
2023-02-14T10:23:32.273Z,13
2023-02-14T10:24:32.251Z,13
2023-02-14T10:25:32.238Z,14
2023-02-14T10:26:32.242Z,13
2023-02-14T10:27:32.260Z,13
2023-02-14T10:28:32.266Z,13
2023-02-14T10:30:32.410Z,13
2023-02-14T10:31:32.412Z,14
2023-02-14T10:32:32.250Z,14
2023-02-14T10:33:32.249Z,13
2023-02-14T10:34:32.244Z,13
2023-02-14T10:35:32.251Z,14
2023-02-14T10:36:32.258Z,13
2023-02-14T10:37:32.309Z,13
2023-02-14T10:38:32.240Z,13
2023-02-14T10:39:32.240Z,13
2023-02-14T10:40:32.252Z,13
2023-02-14T10:41:32.265Z,12
2023-02-14T10:42:32.265Z,13
2023-02-14T10:43:32.257Z,14
2023-02-14T10:44:32.266Z,14
2023-02-14T10:45:32.488Z,14
2023-02-14T10:46:32.271Z,14
2023-02-14T10:47:32.241Z,14
2023-02-14T10:48:32.270Z,14
2023-02-14T10:49:32.274Z,13
2023-02-14T10:51:34.058Z,7
2023-02-14T10:52:32.304Z,7
2023-02-14T10:53:32.260Z,5
2023-02-14T10:54:32.288Z,8
2023-02-14T10:55:32.977Z,7
2023-02-14T10:56:32.275Z,7
2023-02-14T10:57:32.264Z,7
2023-02-14T10:58:32.278Z,13
2023-02-14T10:59:32.264Z,14
2023-02-14T11:00:32.251Z,12
2023-02-14T11:01:32.302Z,12
2023-02-14T11:02:32.256Z,10
2023-02-14T11:03:32.331Z,10
2023-02-14T11:04:32.283Z,9
2023-02-14T11:05:32.283Z,8
2023-02-14T11:06:32.253Z,9
2023-02-14T11:07:32.260Z,9
2023-02-14T11:08:32.271Z,9
2023-02-14T11:09:32.265Z,9
2023-02-14T11:10:32.265Z,9
2023-02-14T11:11:32.342Z,9
2023-02-14T11:12:32.262Z,9
2023-02-14T11:13:32.274Z,8
2023-02-14T11:14:32.329Z,9
2023-02-14T11:15:32.270Z,9
2023-02-14T11:16:32.360Z,9
2023-02-14T11:17:32.279Z,8
2023-02-14T11:18:32.257Z,9
2023-02-14T11:19:32.263Z,9
2023-02-14T11:20:32.277Z,8
2023-02-14T11:21:32.275Z,8
2023-02-14T11:22:32.287Z,9
2023-02-14T11:23:32.265Z,8
2023-02-14T11:24:32.279Z,9
2023-02-14T11:25:32.293Z,9
2023-02-14T11:26:32.263Z,9
2023-02-14T11:27:32.308Z,8
2023-02-14T11:28:32.271Z,9
2023-02-14T11:29:32.319Z,9
2023-02-14T11:31:32.485Z,9
2023-02-14T11:32:32.295Z,8
2023-02-14T11:33:32.277Z,8
2023-02-14T11:34:32.260Z,8
2023-02-14T11:35:32.270Z,9
2023-02-14T11:36:32.267Z,8
2023-02-14T11:37:32.286Z,8
2023-02-14T11:38:32.280Z,9
2023-02-14T11:39:32.285Z,9
2023-02-14T11:40:32.287Z,8
2023-02-14T11:41:32.287Z,8
2023-02-14T11:42:32.272Z,9
2023-02-14T11:43:32.274Z,8
2023-02-14T11:44:32.266Z,8
2023-02-14T11:46:33.989Z,9
2023-02-14T11:47:32.280Z,9
2023-02-14T11:48:38.423Z,8
2023-02-14T11:49:32.282Z,8
2023-02-14T11:50:32.269Z,9
2023-02-14T11:52:32.276Z,9
2023-02-14T11:53:32.286Z,8
2023-02-14T11:54:32.279Z,8
2023-02-14T11:55:32.284Z,9
2023-02-14T11:56:32.283Z,8
2023-02-14T11:57:33.348Z,9
2023-02-14T11:58:32.291Z,9
2023-02-14T11:59:32.282Z,8
2023-02-14T12:00:32.318Z,9
2023-02-14T12:01:32.280Z,8
2023-02-14T12:02:32.338Z,9
2023-02-14T12:03:33.842Z,9
2023-02-14T12:04:32.786Z,9
2023-02-14T12:05:32.277Z,9
2023-02-14T12:06:32.316Z,9
2023-02-14T12:07:32.319Z,9
2023-02-14T12:08:32.309Z,9
2023-02-14T12:09:32.282Z,9
2023-02-14T12:10:32.294Z,9
2023-02-14T12:11:32.284Z,9
2023-02-14T12:12:32.284Z,8
2023-02-14T12:14:32.299Z,9
2023-02-14T12:16:32.353Z,8
2023-02-14T12:17:32.284Z,8
2023-02-14T12:18:32.286Z,8
2023-02-14T12:19:32.285Z,8
2023-02-14T12:20:32.285Z,9
2023-02-14T12:21:32.282Z,8
2023-02-14T12:22:32.291Z,8
2023-02-14T12:24:32.301Z,7
2023-02-14T12:25:32.296Z,8
2023-02-14T12:26:32.324Z,8
2023-02-14T12:27:34.738Z,8
2023-02-14T12:28:32.289Z,8
2023-02-14T12:29:32.327Z,8
2023-02-14T12:30:32.300Z,7
2023-02-14T12:31:32.397Z,7
2023-02-14T12:32:32.299Z,8
2023-02-14T12:33:32.288Z,8
2023-02-14T12:34:32.299Z,8
2023-02-14T12:35:32.296Z,8
2023-02-14T12:37:32.291Z,9
2023-02-14T12:40:32.301Z,8
2023-02-14T12:41:32.327Z,8
2023-02-14T12:43:32.315Z,6
2023-02-14T12:44:32.292Z,7
2023-02-14T12:45:32.313Z,8
2023-02-14T12:48:32.302Z,8
2023-02-14T12:49:32.298Z,7
2023-02-14T12:50:32.301Z,8
2023-02-14T12:51:32.318Z,7
2023-02-14T12:52:32.302Z,7
2023-02-14T12:53:32.311Z,7
2023-02-14T12:55:32.307Z,7
2023-02-14T12:56:32.300Z,8
2023-02-14T12:57:32.297Z,7
2023-02-14T12:58:32.318Z,7
2023-02-14T12:59:32.301Z,8
2023-02-14T13:01:38.482Z,7
2023-02-14T13:02:32.446Z,8
2023-02-14T13:03:32.319Z,8
2023-02-14T13:04:32.294Z,8
2023-02-14T13:05:32.298Z,8
2023-02-14T13:06:32.293Z,8
2023-02-14T13:07:32.303Z,8
2023-02-14T13:08:32.325Z,8
2023-02-14T13:09:32.309Z,8
2023-02-14T13:10:32.714Z,7
2023-02-14T13:11:32.545Z,8
2023-02-14T13:12:32.316Z,7
2023-02-14T13:13:32.356Z,7
2023-02-14T13:15:32.309Z,7
2023-02-14T13:16:32.401Z,8
2023-02-14T13:17:32.309Z,8
2023-02-14T13:18:32.341Z,8
2023-02-14T13:19:32.362Z,8
2023-02-14T13:20:32.330Z,8
2023-02-14T13:21:32.317Z,8
2023-02-14T13:22:32.304Z,7
2023-02-14T13:26:42.604Z,8
2023-02-14T13:29:44.158Z,7
2023-02-14T13:31:32.883Z,8
2023-02-14T13:32:32.324Z,8
2023-02-14T13:33:34.969Z,8
2023-02-14T13:35:32.392Z,8
2023-02-14T13:36:32.312Z,8
2023-02-14T13:37:32.304Z,7
2023-02-14T13:38:32.303Z,8
2023-02-14T13:39:36.203Z,8
2023-02-14T13:40:32.316Z,8
2023-02-14T13:41:32.391Z,8
2023-02-14T13:42:32.318Z,8
2023-02-14T13:43:32.331Z,8
2023-02-14T13:44:32.328Z,9
2023-02-14T13:45:32.311Z,9
2023-02-14T13:46:32.429Z,8
2023-02-14T13:47:32.304Z,8
2023-02-14T13:48:32.311Z,8
2023-02-14T13:49:32.740Z,8
2023-02-14T13:50:32.319Z,8
2023-02-14T13:51:32.331Z,8
2023-02-14T13:52:32.321Z,9
2023-02-14T13:53:32.326Z,8
2023-02-14T13:54:32.727Z,8
2023-02-14T13:55:32.316Z,8
2023-02-14T13:56:32.452Z,8
2023-02-14T13:57:32.307Z,8
2023-02-14T13:58:32.315Z,8
2023-02-14T13:59:32.344Z,8
2023-02-14T14:00:32.460Z,8
2023-02-14T14:01:32.332Z,8
2023-02-14T14:02:32.884Z,8
2023-02-14T14:03:32.623Z,7
2023-02-14T14:04:32.337Z,8
2023-02-14T14:05:32.333Z,8
2023-02-14T14:06:32.346Z,8
2023-02-14T14:07:32.322Z,8
2023-02-14T14:08:32.334Z,8
2023-02-14T14:09:32.310Z,8
2023-02-14T14:10:32.321Z,9
2023-02-14T14:11:32.319Z,8
2023-02-14T14:12:32.321Z,9
2023-02-14T14:13:32.334Z,8
2023-02-14T14:14:32.320Z,8
2023-02-14T14:15:32.329Z,9
2023-02-14T14:16:32.368Z,8
2023-02-14T14:17:32.345Z,8
2023-02-14T14:18:32.317Z,8
2023-02-14T14:19:32.325Z,8
2023-02-14T14:20:32.322Z,8
2023-02-14T14:21:32.359Z,8
2023-02-14T14:22:32.334Z,8
2023-02-14T14:23:32.346Z,8
2023-02-14T14:24:32.338Z,7
2023-02-14T14:25:32.356Z,8
2023-02-14T14:26:32.324Z,8
2023-02-14T14:27:32.341Z,8
2023-02-14T14:28:32.335Z,8
2023-02-14T14:29:32.332Z,9
2023-02-14T14:30:32.438Z,8
2023-02-14T14:31:32.437Z,8
2023-02-14T14:32:32.331Z,9
2023-02-14T14:33:32.319Z,9
2023-02-14T14:34:32.336Z,9
2023-02-14T14:35:32.394Z,10
2023-02-14T14:36:32.342Z,9
2023-02-14T14:37:32.345Z,8
2023-02-14T14:38:32.342Z,9
2023-02-14T14:39:32.333Z,8
2023-02-14T14:40:32.369Z,9
2023-02-14T14:41:32.350Z,8
2023-02-14T14:42:32.340Z,9
2023-02-14T14:43:32.349Z,9
2023-02-14T14:44:32.340Z,9
2023-02-14T14:45:32.369Z,9
2023-02-14T14:46:32.336Z,9
2023-02-14T14:47:32.374Z,8
2023-02-14T14:48:32.344Z,9
2023-02-14T14:49:32.338Z,8
2023-02-14T14:50:32.362Z,8
2023-02-14T14:51:32.351Z,8
2023-02-14T14:52:32.342Z,9
2023-02-14T14:53:32.344Z,9
2023-02-14T14:54:32.352Z,9
2023-02-14T14:55:32.362Z,8
2023-02-14T14:56:32.345Z,8
2023-02-14T14:57:32.351Z,8
2023-02-14T14:58:32.356Z,8
2023-02-14T14:59:32.358Z,8
2023-02-14T15:00:32.345Z,8
2023-02-14T15:01:32.347Z,8
2023-02-14T15:02:32.346Z,8
2023-02-14T15:03:32.360Z,8
2023-02-14T15:04:32.434Z,9
2023-02-14T15:05:32.359Z,8
2023-02-14T15:06:32.387Z,8
2023-02-14T15:07:32.355Z,8
2023-02-14T15:08:32.386Z,8
2023-02-14T15:09:32.384Z,8
2023-02-14T15:10:32.364Z,8
2023-02-14T15:11:32.353Z,7
2023-02-14T15:12:32.349Z,8
2023-02-14T15:13:32.420Z,9
2023-02-14T15:14:32.366Z,7
2023-02-14T15:15:32.397Z,8
2023-02-14T15:16:32.361Z,8
2023-02-14T15:17:32.350Z,7
2023-02-14T15:18:32.358Z,8
2023-02-14T15:19:32.361Z,8
2023-02-14T15:20:32.359Z,7
2023-02-14T15:21:32.361Z,7
2023-02-14T15:22:32.371Z,8
2023-02-14T15:23:32.371Z,8
2023-02-14T15:24:32.368Z,7
2023-02-14T15:25:32.358Z,8
2023-02-14T15:26:32.360Z,8
2023-02-14T15:27:32.368Z,9
2023-02-14T15:28:32.357Z,8
2023-02-14T15:29:32.409Z,8
2023-02-14T15:30:32.494Z,8
2023-02-14T15:31:32.495Z,9
2023-02-14T15:32:32.393Z,9
2023-02-14T15:33:32.365Z,8
2023-02-14T15:34:32.373Z,7
2023-02-14T15:35:32.368Z,8
2023-02-14T15:36:32.381Z,8
2023-02-14T15:37:32.415Z,9
2023-02-14T15:38:32.376Z,8
2023-02-14T15:39:32.365Z,9
2023-02-14T15:40:32.362Z,7
2023-02-14T15:41:32.370Z,8
2023-02-14T15:42:32.373Z,9
2023-02-14T15:43:32.384Z,8
2023-02-14T15:44:32.369Z,8
2023-02-14T15:45:32.361Z,8